sensor_id;sensor_type;location;lat;lon;timestamp;P1;durP1;ratioP1;P2;durP2;ratioP2
40755;SDS011;26461;45.630;9.418;2024-03-29T00:00:10;3.58;;;3.00;;
40755;SDS011;26461;45.630;9.418;2024-03-29T00:03:18;3.90;;;2.65;;
40755;SDS011;26461;45.630;9.418;2024-03-29T00:06:21;3.72;;;2.50;;
40755;SDS011;26461;45.630;9.418;2024-03-29T00:09:25;3.35;;;2.67;;
40755;SDS011;26461;45.630;9.418;2024-03-29T00:12:29;5.13;;;3.17;;
40755;SDS011;26461;45.630;9.418;2024-03-29T00:15:33;4.47;;;2.85;;
40755;SDS011;26461;45.630;9.418;2024-03-29T00:18:37;5.45;;;3.08;;
40755;SDS011;26461;45.630;9.418;2024-03-29T00:21:41;3.50;;;3.05;;
40755;SDS011;26461;45.630;9.418;2024-03-29T00:24:45;4.50;;;3.10;;
40755;SDS011;26461;45.630;9.418;2024-03-29T00:27:49;5.57;;;3.60;;
40755;SDS011;26461;45.630;9.418;2024-03-29T00:30:53;5.25;;;3.00;;
40755;SDS011;26461;45.630;9.418;2024-03-29T00:33:57;4.55;;;3.10;;
40755;SDS011;26461;45.630;9.418;2024-03-29T00:37:01;4.47;;;3.47;;
40755;SDS011;26461;45.630;9.418;2024-03-29T00:40:06;5.00;;;3.38;;
40755;SDS011;26461;45.630;9.418;2024-03-29T00:43:10;5.10;;;3.10;;
40755;SDS011;26461;45.630;9.418;2024-03-29T00:46:14;5.38;;;3.13;;
40755;SDS011;26461;45.630;9.418;2024-03-29T00:49:18;4.63;;;2.97;;
40755;SDS011;26461;45.630;9.418;2024-03-29T00:52:22;4.55;;;3.13;;
40755;SDS011;26461;45.630;9.418;2024-03-29T00:55:26;5.57;;;3.65;;
40755;SDS011;26461;45.630;9.418;2024-03-29T00:58:30;4.60;;;2.80;;
40755;SDS011;26461;45.630;9.418;2024-03-29T01:01:34;4.72;;;2.15;;
40755;SDS011;26461;45.630;9.418;2024-03-29T01:04:38;3.65;;;2.55;;
40755;SDS011;26461;45.630;9.418;2024-03-29T01:07:43;4.10;;;2.70;;
40755;SDS011;26461;45.630;9.418;2024-03-29T01:10:47;4.47;;;2.35;;
40755;SDS011;26461;45.630;9.418;2024-03-29T01:13:52;3.30;;;2.42;;
40755;SDS011;26461;45.630;9.418;2024-03-29T01:16:56;2.92;;;2.20;;
40755;SDS011;26461;45.630;9.418;2024-03-29T01:20:00;3.97;;;2.70;;
40755;SDS011;26461;45.630;9.418;2024-03-29T01:23:04;5.93;;;2.35;;
40755;SDS011;26461;45.630;9.418;2024-03-29T01:26:08;3.80;;;2.08;;
40755;SDS011;26461;45.630;9.418;2024-03-29T01:29:15;2.90;;;2.25;;
40755;SDS011;26461;45.630;9.418;2024-03-29T01:32:19;2.95;;;2.08;;
40755;SDS011;26461;45.630;9.418;2024-03-29T01:35:23;2.70;;;1.90;;
40755;SDS011;26461;45.630;9.418;2024-03-29T01:38:27;2.55;;;1.63;;
40755;SDS011;26461;45.630;9.418;2024-03-29T01:41:31;3.40;;;2.35;;
40755;SDS011;26461;45.630;9.418;2024-03-29T01:44:36;5.25;;;2.45;;
40755;SDS011;26461;45.630;9.418;2024-03-29T01:47:40;3.38;;;2.33;;
40755;SDS011;26461;45.630;9.418;2024-03-29T01:50:44;4.47;;;2.78;;
40755;SDS011;26461;45.630;9.418;2024-03-29T01:53:49;2.53;;;1.60;;
40755;SDS011;26461;45.630;9.418;2024-03-29T01:56:56;3.08;;;1.63;;
40755;SDS011;26461;45.630;9.418;2024-03-29T02:00:00;3.60;;;2.60;;
40755;SDS011;26461;45.630;9.418;2024-03-29T02:03:09;3.25;;;2.60;;
40755;SDS011;26461;45.630;9.418;2024-03-29T02:06:16;4.15;;;2.10;;
40755;SDS011;26461;45.630;9.418;2024-03-29T02:09:20;3.22;;;2.30;;
40755;SDS011;26461;45.630;9.418;2024-03-29T02:12:24;3.75;;;2.50;;
40755;SDS011;26461;45.630;9.418;2024-03-29T02:15:28;3.22;;;2.63;;
40755;SDS011;26461;45.630;9.418;2024-03-29T02:18:33;3.53;;;3.05;;
40755;SDS011;26461;45.630;9.418;2024-03-29T02:21:37;4.18;;;2.45;;
40755;SDS011;26461;45.630;9.418;2024-03-29T02:24:48;4.32;;;2.50;;
40755;SDS011;26461;45.630;9.418;2024-03-29T02:27:53;3.33;;;2.40;;
40755;SDS011;26461;45.630;9.418;2024-03-29T02:30:58;7.63;;;2.40;;
40755;SDS011;26461;45.630;9.418;2024-03-29T02:34:02;2.78;;;2.35;;
40755;SDS011;26461;45.630;9.418;2024-03-29T02:37:06;4.38;;;3.20;;
40755;SDS011;26461;45.630;9.418;2024-03-29T02:40:11;4.60;;;2.95;;
40755;SDS011;26461;45.630;9.418;2024-03-29T02:43:15;3.65;;;2.42;;
40755;SDS011;26461;45.630;9.418;2024-03-29T02:46:19;2.72;;;2.35;;
40755;SDS011;26461;45.630;9.418;2024-03-29T02:49:23;3.75;;;2.47;;
40755;SDS011;26461;45.630;9.418;2024-03-29T02:52:27;3.00;;;2.42;;
40755;SDS011;26461;45.630;9.418;2024-03-29T02:55:32;3.42;;;2.65;;
40755;SDS011;26461;45.630;9.418;2024-03-29T02:58:36;3.30;;;2.60;;
40755;SDS011;26461;45.630;9.418;2024-03-29T03:01:40;2.67;;;1.98;;
40755;SDS011;26461;45.630;9.418;2024-03-29T03:04:44;5.50;;;3.10;;
40755;SDS011;26461;45.630;9.418;2024-03-29T03:07:48;3.80;;;2.92;;
40755;SDS011;26461;45.630;9.418;2024-03-29T03:11:10;4.20;;;2.70;;
40755;SDS011;26461;45.630;9.418;2024-03-29T03:14:14;3.45;;;2.53;;
40755;SDS011;26461;45.630;9.418;2024-03-29T03:17:18;4.97;;;3.25;;
40755;SDS011;26461;45.630;9.418;2024-03-29T03:20:22;3.10;;;2.78;;
40755;SDS011;26461;45.630;9.418;2024-03-29T03:23:26;5.25;;;3.40;;
40755;SDS011;26461;45.630;9.418;2024-03-29T03:26:31;4.13;;;2.90;;
40755;SDS011;26461;45.630;9.418;2024-03-29T03:29:35;3.63;;;3.08;;
40755;SDS011;26461;45.630;9.418;2024-03-29T03:32:39;5.85;;;4.32;;
40755;SDS011;26461;45.630;9.418;2024-03-29T03:35:43;8.13;;;5.47;;
40755;SDS011;26461;45.630;9.418;2024-03-29T03:38:47;5.88;;;5.32;;
40755;SDS011;26461;45.630;9.418;2024-03-29T03:41:51;5.90;;;4.22;;
40755;SDS011;26461;45.630;9.418;2024-03-29T03:44:55;5.20;;;3.67;;
40755;SDS011;26461;45.630;9.418;2024-03-29T03:47:59;7.63;;;4.95;;
40755;SDS011;26461;45.630;9.418;2024-03-29T03:51:03;5.68;;;4.18;;
40755;SDS011;26461;45.630;9.418;2024-03-29T03:54:07;6.80;;;5.05;;
40755;SDS011;26461;45.630;9.418;2024-03-29T03:57:11;8.88;;;4.60;;
40755;SDS011;26461;45.630;9.418;2024-03-29T04:00:15;4.00;;;3.50;;
40755;SDS011;26461;45.630;9.418;2024-03-29T04:03:19;6.65;;;4.80;;
40755;SDS011;26461;45.630;9.418;2024-03-29T04:06:23;5.40;;;3.70;;
40755;SDS011;26461;45.630;9.418;2024-03-29T04:09:27;5.57;;;4.78;;
40755;SDS011;26461;45.630;9.418;2024-03-29T04:12:32;6.07;;;4.63;;
40755;SDS011;26461;45.630;9.418;2024-03-29T04:15:35;8.13;;;5.60;;
40755;SDS011;26461;45.630;9.418;2024-03-29T04:18:39;6.13;;;5.00;;
40755;SDS011;26461;45.630;9.418;2024-03-29T04:21:43;5.82;;;5.13;;
40755;SDS011;26461;45.630;9.418;2024-03-29T04:24:47;6.40;;;5.10;;
40755;SDS011;26461;45.630;9.418;2024-03-29T04:27:51;6.10;;;5.10;;
40755;SDS011;26461;45.630;9.418;2024-03-29T04:30:55;6.18;;;4.25;;
40755;SDS011;26461;45.630;9.418;2024-03-29T04:34:00;5.38;;;4.28;;
40755;SDS011;26461;45.630;9.418;2024-03-29T04:37:04;7.18;;;4.22;;
40755;SDS011;26461;45.630;9.418;2024-03-29T04:40:09;5.55;;;3.70;;
40755;SDS011;26461;45.630;9.418;2024-03-29T04:43:13;4.93;;;3.80;;
40755;SDS011;26461;45.630;9.418;2024-03-29T04:46:17;4.45;;;3.58;;
40755;SDS011;26461;45.630;9.418;2024-03-29T04:49:22;6.60;;;4.25;;
40755;SDS011;26461;45.630;9.418;2024-03-29T04:52:33;5.50;;;4.30;;
40755;SDS011;26461;45.630;9.418;2024-03-29T04:55:37;6.18;;;4.82;;
40755;SDS011;26461;45.630;9.418;2024-03-29T04:58:42;5.70;;;4.05;;
40755;SDS011;26461;45.630;9.418;2024-03-29T05:01:46;6.53;;;3.60;;
40755;SDS011;26461;45.630;9.418;2024-03-29T05:04:58;3.97;;;3.00;;
40755;SDS011;26461;45.630;9.418;2024-03-29T05:08:02;4.82;;;3.53;;
40755;SDS011;26461;45.630;9.418;2024-03-29T05:11:07;4.15;;;2.83;;
40755;SDS011;26461;45.630;9.418;2024-03-29T05:14:17;2.80;;;2.00;;
40755;SDS011;26461;45.630;9.418;2024-03-29T05:17:22;3.03;;;1.80;;
40755;SDS011;26461;45.630;9.418;2024-03-29T05:20:29;9.15;;;2.30;;
40755;SDS011;26461;45.630;9.418;2024-03-29T05:23:33;7.10;;;2.20;;
40755;SDS011;26461;45.630;9.418;2024-03-29T05:26:37;9.32;;;3.90;;
40755;SDS011;26461;45.630;9.418;2024-03-29T05:29:41;10.25;;;4.78;;
40755;SDS011;26461;45.630;9.418;2024-03-29T05:32:45;8.40;;;5.50;;
40755;SDS011;26461;45.630;9.418;2024-03-29T05:35:49;10.60;;;7.53;;
40755;SDS011;26461;45.630;9.418;2024-03-29T05:38:53;11.70;;;8.18;;
40755;SDS011;26461;45.630;9.418;2024-03-29T05:41:58;11.23;;;9.82;;
40755;SDS011;26461;45.630;9.418;2024-03-29T05:45:03;14.45;;;11.82;;
40755;SDS011;26461;45.630;9.418;2024-03-29T05:48:09;15.65;;;12.80;;
40755;SDS011;26461;45.630;9.418;2024-03-29T05:51:13;17.65;;;12.60;;
40755;SDS011;26461;45.630;9.418;2024-03-29T05:54:17;14.60;;;12.13;;
40755;SDS011;26461;45.630;9.418;2024-03-29T05:57:21;17.35;;;13.75;;
40755;SDS011;26461;45.630;9.418;2024-03-29T06:00:31;30.85;;;16.95;;
40755;SDS011;26461;45.630;9.418;2024-03-29T06:03:36;18.70;;;15.38;;
40755;SDS011;26461;45.630;9.418;2024-03-29T06:06:40;19.98;;;16.10;;
40755;SDS011;26461;45.630;9.418;2024-03-29T06:09:45;19.75;;;15.60;;
40755;SDS011;26461;45.630;9.418;2024-03-29T06:12:48;22.13;;;17.95;;
40755;SDS011;26461;45.630;9.418;2024-03-29T06:15:53;24.95;;;16.38;;
40755;SDS011;26461;45.630;9.418;2024-03-29T06:19:15;27.10;;;19.73;;
40755;SDS011;26461;45.630;9.418;2024-03-29T06:22:19;27.08;;;17.20;;
40755;SDS011;26461;45.630;9.418;2024-03-29T06:25:23;25.10;;;19.60;;
40755;SDS011;26461;45.630;9.418;2024-03-29T06:28:27;20.08;;;17.52;;
40755;SDS011;26461;45.630;9.418;2024-03-29T06:31:31;20.83;;;16.00;;
40755;SDS011;26461;45.630;9.418;2024-03-29T06:34:35;17.55;;;14.07;;
40755;SDS011;26461;45.630;9.418;2024-03-29T06:37:39;24.25;;;17.13;;
40755;SDS011;26461;45.630;9.418;2024-03-29T06:40:43;22.05;;;17.70;;
40755;SDS011;26461;45.630;9.418;2024-03-29T06:43:47;25.92;;;17.60;;
40755;SDS011;26461;45.630;9.418;2024-03-29T06:46:51;19.25;;;16.10;;
40755;SDS011;26461;45.630;9.418;2024-03-29T06:49:55;22.48;;;15.50;;
40755;SDS011;26461;45.630;9.418;2024-03-29T06:53:00;18.77;;;14.43;;
40755;SDS011;26461;45.630;9.418;2024-03-29T06:56:04;15.63;;;13.18;;
40755;SDS011;26461;45.630;9.418;2024-03-29T06:59:08;15.75;;;14.55;;
40755;SDS011;26461;45.630;9.418;2024-03-29T07:02:12;19.30;;;13.90;;
40755;SDS011;26461;45.630;9.418;2024-03-29T07:05:16;16.85;;;14.50;;
40755;SDS011;26461;45.630;9.418;2024-03-29T07:08:20;17.33;;;13.73;;
40755;SDS011;26461;45.630;9.418;2024-03-29T07:11:24;14.73;;;12.50;;
40755;SDS011;26461;45.630;9.418;2024-03-29T07:14:27;15.55;;;11.75;;
40755;SDS011;26461;45.630;9.418;2024-03-29T07:17:32;15.88;;;13.05;;
40755;SDS011;26461;45.630;9.418;2024-03-29T07:20:37;19.52;;;12.85;;
40755;SDS011;26461;45.630;9.418;2024-03-29T07:23:41;16.92;;;13.05;;
40755;SDS011;26461;45.630;9.418;2024-03-29T07:26:45;18.50;;;12.90;;
40755;SDS011;26461;45.630;9.418;2024-03-29T07:29:49;17.38;;;12.60;;
40755;SDS011;26461;45.630;9.418;2024-03-29T07:32:53;17.25;;;12.90;;
40755;SDS011;26461;45.630;9.418;2024-03-29T07:35:57;16.92;;;12.63;;
40755;SDS011;26461;45.630;9.418;2024-03-29T07:39:02;13.25;;;12.38;;
40755;SDS011;26461;45.630;9.418;2024-03-29T07:42:08;18.30;;;14.00;;
40755;SDS011;26461;45.630;9.418;2024-03-29T07:45:11;20.40;;;13.75;;
40755;SDS011;26461;45.630;9.418;2024-03-29T07:48:17;20.02;;;14.63;;
40755;SDS011;26461;45.630;9.418;2024-03-29T07:51:21;18.50;;;14.45;;
40755;SDS011;26461;45.630;9.418;2024-03-29T07:54:25;18.48;;;13.40;;
40755;SDS011;26461;45.630;9.418;2024-03-29T07:57:30;15.70;;;12.73;;
40755;SDS011;26461;45.630;9.418;2024-03-29T08:00:34;16.30;;;11.60;;
40755;SDS011;26461;45.630;9.418;2024-03-29T08:03:42;20.80;;;13.75;;
40755;SDS011;26461;45.630;9.418;2024-03-29T08:06:46;21.05;;;16.30;;
40755;SDS011;26461;45.630;9.418;2024-03-29T08:09:50;17.73;;;13.38;;
40755;SDS011;26461;45.630;9.418;2024-03-29T08:12:54;17.33;;;12.52;;
40755;SDS011;26461;45.630;9.418;2024-03-29T08:15:59;22.48;;;15.02;;
40755;SDS011;26461;45.630;9.418;2024-03-29T08:19:04;21.88;;;14.38;;
40755;SDS011;26461;45.630;9.418;2024-03-29T08:22:08;21.17;;;14.52;;
40755;SDS011;26461;45.630;9.418;2024-03-29T08:25:13;21.70;;;15.35;;
40755;SDS011;26461;45.630;9.418;2024-03-29T08:28:18;19.25;;;13.43;;
40755;SDS011;26461;45.630;9.418;2024-03-29T08:31:23;18.05;;;12.15;;
40755;SDS011;26461;45.630;9.418;2024-03-29T08:34:27;17.77;;;12.80;;
40755;SDS011;26461;45.630;9.418;2024-03-29T08:37:38;15.00;;;11.95;;
40755;SDS011;26461;45.630;9.418;2024-03-29T08:40:42;12.48;;;9.73;;
40755;SDS011;26461;45.630;9.418;2024-03-29T08:43:50;13.60;;;10.18;;
40755;SDS011;26461;45.630;9.418;2024-03-29T08:46:54;12.55;;;8.85;;
40755;SDS011;26461;45.630;9.418;2024-03-29T08:50:00;11.23;;;8.82;;
40755;SDS011;26461;45.630;9.418;2024-03-29T08:53:04;10.60;;;8.30;;
40755;SDS011;26461;45.630;9.418;2024-03-29T08:56:09;10.65;;;8.30;;
40755;SDS011;26461;45.630;9.418;2024-03-29T08:59:12;14.10;;;7.65;;
40755;SDS011;26461;45.630;9.418;2024-03-29T09:02:17;10.75;;;7.05;;
40755;SDS011;26461;45.630;9.418;2024-03-29T09:05:22;10.00;;;7.97;;
40755;SDS011;26461;45.630;9.418;2024-03-29T09:08:27;14.15;;;8.18;;
40755;SDS011;26461;45.630;9.418;2024-03-29T09:11:31;11.02;;;7.97;;
40755;SDS011;26461;45.630;9.418;2024-03-29T09:14:35;12.13;;;9.02;;
40755;SDS011;26461;45.630;9.418;2024-03-29T09:17:39;10.77;;;7.78;;
40755;SDS011;26461;45.630;9.418;2024-03-29T09:20:44;10.77;;;8.05;;
40755;SDS011;26461;45.630;9.418;2024-03-29T09:23:48;9.32;;;6.28;;
40755;SDS011;26461;45.630;9.418;2024-03-29T09:26:55;10.30;;;6.68;;
40755;SDS011;26461;45.630;9.418;2024-03-29T09:30:00;7.75;;;5.72;;
40755;SDS011;26461;45.630;9.418;2024-03-29T09:33:04;8.68;;;6.43;;
40755;SDS011;26461;45.630;9.418;2024-03-29T09:36:10;9.43;;;5.30;;
40755;SDS011;26461;45.630;9.418;2024-03-29T09:39:15;7.85;;;5.72;;
40755;SDS011;26461;45.630;9.418;2024-03-29T09:42:20;7.35;;;6.10;;
40755;SDS011;26461;45.630;9.418;2024-03-29T09:45:33;10.05;;;6.07;;
40755;SDS011;26461;45.630;9.418;2024-03-29T09:48:41;8.55;;;5.93;;
40755;SDS011;26461;45.630;9.418;2024-03-29T09:51:49;6.53;;;5.35;;
40755;SDS011;26461;45.630;9.418;2024-03-29T09:54:55;8.32;;;5.43;;
40755;SDS011;26461;45.630;9.418;2024-03-29T09:58:00;7.80;;;5.38;;
40755;SDS011;26461;45.630;9.418;2024-03-29T10:01:05;8.07;;;5.20;;
40755;SDS011;26461;45.630;9.418;2024-03-29T10:04:11;9.07;;;7.00;;
40755;SDS011;26461;45.630;9.418;2024-03-29T10:07:17;6.68;;;5.47;;
40755;SDS011;26461;45.630;9.418;2024-03-29T10:10:23;5.43;;;4.03;;
40755;SDS011;26461;45.630;9.418;2024-03-29T10:13:27;4.95;;;3.92;;
40755;SDS011;26461;45.630;9.418;2024-03-29T10:16:31;8.20;;;5.30;;
40755;SDS011;26461;45.630;9.418;2024-03-29T10:19:37;12.15;;;7.07;;
40755;SDS011;26461;45.630;9.418;2024-03-29T10:22:41;6.80;;;5.70;;
40755;SDS011;26461;45.630;9.418;2024-03-29T10:25:47;10.00;;;5.95;;
40755;SDS011;26461;45.630;9.418;2024-03-29T10:28:51;11.88;;;6.22;;
40755;SDS011;26461;45.630;9.418;2024-03-29T10:31:58;7.30;;;4.88;;
40755;SDS011;26461;45.630;9.418;2024-03-29T10:35:03;5.60;;;5.03;;
40755;SDS011;26461;45.630;9.418;2024-03-29T10:38:12;5.85;;;5.25;;
40755;SDS011;26461;45.630;9.418;2024-03-29T10:41:16;5.45;;;3.45;;
40755;SDS011;26461;45.630;9.418;2024-03-29T10:44:21;5.47;;;3.83;;
40755;SDS011;26461;45.630;9.418;2024-03-29T10:47:26;8.75;;;4.50;;
40755;SDS011;26461;45.630;9.418;2024-03-29T10:50:34;4.70;;;4.00;;
40755;SDS011;26461;45.630;9.418;2024-03-29T10:53:44;7.82;;;3.70;;
40755;SDS011;26461;45.630;9.418;2024-03-29T10:56:51;4.75;;;3.80;;
40755;SDS011;26461;45.630;9.418;2024-03-29T11:00:03;5.68;;;4.50;;
40755;SDS011;26461;45.630;9.418;2024-03-29T11:03:13;6.15;;;4.20;;
40755;SDS011;26461;45.630;9.418;2024-03-29T11:06:22;7.15;;;4.05;;
40755;SDS011;26461;45.630;9.418;2024-03-29T11:09:30;3.40;;;2.90;;
40755;SDS011;26461;45.630;9.418;2024-03-29T11:12:39;5.75;;;3.72;;
40755;SDS011;26461;45.630;9.418;2024-03-29T11:15:51;8.55;;;4.13;;
40755;SDS011;26461;45.630;9.418;2024-03-29T11:18:56;8.90;;;3.85;;
40755;SDS011;26461;45.630;9.418;2024-03-29T11:22:01;7.20;;;4.43;;
40755;SDS011;26461;45.630;9.418;2024-03-29T11:25:05;5.57;;;3.85;;
40755;SDS011;26461;45.630;9.418;2024-03-29T11:28:12;5.25;;;2.85;;
40755;SDS011;26461;45.630;9.418;2024-03-29T11:31:22;6.18;;;3.15;;
40755;SDS011;26461;45.630;9.418;2024-03-29T11:34:30;6.78;;;3.95;;
40755;SDS011;26461;45.630;9.418;2024-03-29T11:37:36;9.02;;;3.80;;
40755;SDS011;26461;45.630;9.418;2024-03-29T11:40:40;7.55;;;4.18;;
40755;SDS011;26461;45.630;9.418;2024-03-29T11:43:44;6.35;;;4.05;;
40755;SDS011;26461;45.630;9.418;2024-03-29T11:46:48;6.07;;;4.47;;
40755;SDS011;26461;45.630;9.418;2024-03-29T11:49:56;9.57;;;6.45;;
40755;SDS011;26461;45.630;9.418;2024-03-29T11:53:02;8.52;;;4.97;;
40755;SDS011;26461;45.630;9.418;2024-03-29T11:56:08;8.07;;;5.07;;
40755;SDS011;26461;45.630;9.418;2024-03-29T11:59:15;7.35;;;5.38;;
40755;SDS011;26461;45.630;9.418;2024-03-29T12:02:20;13.57;;;5.80;;
40755;SDS011;26461;45.630;9.418;2024-03-29T12:05:23;11.35;;;6.03;;
40755;SDS011;26461;45.630;9.418;2024-03-29T12:08:32;9.75;;;6.45;;
40755;SDS011;26461;45.630;9.418;2024-03-29T12:11:36;6.97;;;6.63;;
40755;SDS011;26461;45.630;9.418;2024-03-29T12:14:40;9.80;;;5.65;;
40755;SDS011;26461;45.630;9.418;2024-03-29T12:17:52;7.47;;;5.10;;
40755;SDS011;26461;45.630;9.418;2024-03-29T12:21:00;8.93;;;6.70;;
40755;SDS011;26461;45.630;9.418;2024-03-29T12:24:04;7.80;;;6.43;;
40755;SDS011;26461;45.630;9.418;2024-03-29T12:27:10;18.92;;;7.38;;
40755;SDS011;26461;45.630;9.418;2024-03-29T12:30:14;8.32;;;5.65;;
40755;SDS011;26461;45.630;9.418;2024-03-29T12:33:19;11.05;;;7.18;;
40755;SDS011;26461;45.630;9.418;2024-03-29T12:36:25;6.53;;;5.60;;
40755;SDS011;26461;45.630;9.418;2024-03-29T12:39:30;13.13;;;5.50;;
40755;SDS011;26461;45.630;9.418;2024-03-29T12:42:37;8.82;;;6.28;;
40755;SDS011;26461;45.630;9.418;2024-03-29T12:45:42;11.20;;;5.63;;
40755;SDS011;26461;45.630;9.418;2024-03-29T12:48:46;5.20;;;4.10;;
40755;SDS011;26461;45.630;9.418;2024-03-29T12:51:50;9.77;;;4.93;;
40755;SDS011;26461;45.630;9.418;2024-03-29T12:54:54;9.75;;;5.38;;
40755;SDS011;26461;45.630;9.418;2024-03-29T12:57:58;7.35;;;4.80;;
40755;SDS011;26461;45.630;9.418;2024-03-29T13:01:03;6.18;;;4.88;;
40755;SDS011;26461;45.630;9.418;2024-03-29T13:04:09;4.35;;;3.75;;
40755;SDS011;26461;45.630;9.418;2024-03-29T13:07:15;5.75;;;4.40;;
40755;SDS011;26461;45.630;9.418;2024-03-29T13:10:20;8.70;;;4.10;;
40755;SDS011;26461;45.630;9.418;2024-03-29T13:13:24;6.65;;;4.60;;
40755;SDS011;26461;45.630;9.418;2024-03-29T13:16:28;4.32;;;3.65;;
40755;SDS011;26461;45.630;9.418;2024-03-29T13:19:32;8.85;;;4.70;;
40755;SDS011;26461;45.630;9.418;2024-03-29T13:22:36;5.13;;;4.20;;
40755;SDS011;26461;45.630;9.418;2024-03-29T13:25:40;6.35;;;4.93;;
40755;SDS011;26461;45.630;9.418;2024-03-29T13:28:45;5.45;;;3.95;;
40755;SDS011;26461;45.630;9.418;2024-03-29T13:31:48;4.97;;;3.78;;
40755;SDS011;26461;45.630;9.418;2024-03-29T13:34:53;7.75;;;4.22;;
40755;SDS011;26461;45.630;9.418;2024-03-29T13:37:57;8.25;;;4.13;;
40755;SDS011;26461;45.630;9.418;2024-03-29T13:41:01;5.50;;;4.35;;
40755;SDS011;26461;45.630;9.418;2024-03-29T13:44:06;5.78;;;4.25;;
40755;SDS011;26461;45.630;9.418;2024-03-29T13:47:10;6.50;;;4.78;;
40755;SDS011;26461;45.630;9.418;2024-03-29T13:50:19;12.60;;;4.60;;
40755;SDS011;26461;45.630;9.418;2024-03-29T13:53:24;5.70;;;3.80;;
40755;SDS011;26461;45.630;9.418;2024-03-29T13:56:27;4.03;;;3.45;;
40755;SDS011;26461;45.630;9.418;2024-03-29T13:59:32;6.43;;;4.55;;
40755;SDS011;26461;45.630;9.418;2024-03-29T14:02:37;8.68;;;3.80;;
40755;SDS011;26461;45.630;9.418;2024-03-29T14:05:40;5.95;;;4.60;;
40755;SDS011;26461;45.630;9.418;2024-03-29T14:08:47;5.00;;;3.90;;
40755;SDS011;26461;45.630;9.418;2024-03-29T14:11:51;3.28;;;3.08;;
40755;SDS011;26461;45.630;9.418;2024-03-29T14:14:55;4.00;;;3.20;;
40755;SDS011;26461;45.630;9.418;2024-03-29T14:17:59;5.28;;;3.83;;
40755;SDS011;26461;45.630;9.418;2024-03-29T14:21:04;5.45;;;3.78;;
40755;SDS011;26461;45.630;9.418;2024-03-29T14:24:07;6.00;;;4.13;;
40755;SDS011;26461;45.630;9.418;2024-03-29T14:27:11;5.63;;;3.50;;
40755;SDS011;26461;45.630;9.418;2024-03-29T14:30:18;3.38;;;2.85;;
40755;SDS011;26461;45.630;9.418;2024-03-29T14:33:22;3.67;;;2.80;;
40755;SDS011;26461;45.630;9.418;2024-03-29T14:36:26;4.43;;;3.17;;
40755;SDS011;26461;45.630;9.418;2024-03-29T14:39:30;4.38;;;2.70;;
40755;SDS011;26461;45.630;9.418;2024-03-29T14:42:34;3.67;;;2.40;;
40755;SDS011;26461;45.630;9.418;2024-03-29T14:45:42;4.82;;;3.63;;
40755;SDS011;26461;45.630;9.418;2024-03-29T14:48:46;4.93;;;3.20;;
40755;SDS011;26461;45.630;9.418;2024-03-29T14:51:50;4.88;;;3.20;;
40755;SDS011;26461;45.630;9.418;2024-03-29T14:54:54;5.18;;;3.08;;
40755;SDS011;26461;45.630;9.418;2024-03-29T14:57:58;4.25;;;2.72;;
40755;SDS011;26461;45.630;9.418;2024-03-29T15:01:02;4.43;;;3.13;;
40755;SDS011;26461;45.630;9.418;2024-03-29T15:04:06;4.22;;;3.50;;
40755;SDS011;26461;45.630;9.418;2024-03-29T15:07:11;5.85;;;3.20;;
40755;SDS011;26461;45.630;9.418;2024-03-29T15:10:15;6.68;;;3.53;;
40755;SDS011;26461;45.630;9.418;2024-03-29T15:13:19;7.18;;;4.10;;
40755;SDS011;26461;45.630;9.418;2024-03-29T15:16:22;8.55;;;5.05;;
40755;SDS011;26461;45.630;9.418;2024-03-29T15:19:30;8.02;;;4.68;;
40755;SDS011;26461;45.630;9.418;2024-03-29T15:22:37;9.27;;;4.63;;
40755;SDS011;26461;45.630;9.418;2024-03-29T15:25:44;6.50;;;5.50;;
40755;SDS011;26461;45.630;9.418;2024-03-29T15:28:49;10.45;;;6.22;;
40755;SDS011;26461;45.630;9.418;2024-03-29T15:32:11;7.55;;;5.70;;
40755;SDS011;26461;45.630;9.418;2024-03-29T15:35:16;8.68;;;5.85;;
40755;SDS011;26461;45.630;9.418;2024-03-29T15:38:20;7.70;;;5.65;;
40755;SDS011;26461;45.630;9.418;2024-03-29T15:41:28;10.05;;;5.25;;
40755;SDS011;26461;45.630;9.418;2024-03-29T15:44:32;6.32;;;4.13;;
40755;SDS011;26461;45.630;9.418;2024-03-29T15:47:37;5.57;;;3.60;;
40755;SDS011;26461;45.630;9.418;2024-03-29T15:50:41;6.55;;;3.03;;
40755;SDS011;26461;45.630;9.418;2024-03-29T15:53:45;5.05;;;3.38;;
40755;SDS011;26461;45.630;9.418;2024-03-29T15:56:49;6.60;;;4.32;;
40755;SDS011;26461;45.630;9.418;2024-03-29T15:59:53;4.40;;;3.22;;
40755;SDS011;26461;45.630;9.418;2024-03-29T16:02:57;5.50;;;4.00;;
40755;SDS011;26461;45.630;9.418;2024-03-29T16:06:03;8.48;;;3.88;;
40755;SDS011;26461;45.630;9.418;2024-03-29T16:09:07;6.85;;;4.63;;
40755;SDS011;26461;45.630;9.418;2024-03-29T16:12:11;8.82;;;4.43;;
40755;SDS011;26461;45.630;9.418;2024-03-29T16:15:15;6.72;;;4.32;;
40755;SDS011;26461;45.630;9.418;2024-03-29T16:18:20;6.55;;;4.50;;
40755;SDS011;26461;45.630;9.418;2024-03-29T16:21:25;5.10;;;3.70;;
40755;SDS011;26461;45.630;9.418;2024-03-29T16:24:32;5.55;;;4.10;;
40755;SDS011;26461;45.630;9.418;2024-03-29T16:27:36;5.07;;;3.88;;
40755;SDS011;26461;45.630;9.418;2024-03-29T16:30:44;7.47;;;4.03;;
40755;SDS011;26461;45.630;9.418;2024-03-29T16:33:48;4.18;;;3.38;;
40755;SDS011;26461;45.630;9.418;2024-03-29T16:36:52;4.57;;;3.60;;
40755;SDS011;26461;45.630;9.418;2024-03-29T16:39:56;5.55;;;3.90;;
40755;SDS011;26461;45.630;9.418;2024-03-29T16:43:00;5.60;;;4.15;;
40755;SDS011;26461;45.630;9.418;2024-03-29T16:46:08;4.90;;;4.00;;
40755;SDS011;26461;45.630;9.418;2024-03-29T16:49:11;8.88;;;4.55;;
40755;SDS011;26461;45.630;9.418;2024-03-29T16:52:16;8.48;;;4.28;;
40755;SDS011;26461;45.630;9.418;2024-03-29T16:55:20;138.25;;;65.13;;
40755;SDS011;26461;45.630;9.418;2024-03-29T16:58:24;103.20;;;50.38;;
40755;SDS011;26461;45.630;9.418;2024-03-29T17:01:31;56.55;;;27.38;;
40755;SDS011;26461;45.630;9.418;2024-03-29T17:04:35;32.25;;;18.23;;
40755;SDS011;26461;45.630;9.418;2024-03-29T17:07:39;32.80;;;16.42;;
40755;SDS011;26461;45.630;9.418;2024-03-29T17:10:43;17.98;;;11.60;;
40755;SDS011;26461;45.630;9.418;2024-03-29T17:13:47;21.83;;;11.38;;
40755;SDS011;26461;45.630;9.418;2024-03-29T17:16:50;15.52;;;10.68;;
40755;SDS011;26461;45.630;9.418;2024-03-29T17:19:57;19.77;;;11.00;;
40755;SDS011;26461;45.630;9.418;2024-03-29T17:23:01;16.20;;;10.23;;
40755;SDS011;26461;45.630;9.418;2024-03-29T17:26:05;18.20;;;11.07;;
40755;SDS011;26461;45.630;9.418;2024-03-29T17:29:09;14.57;;;9.77;;
40755;SDS011;26461;45.630;9.418;2024-03-29T17:32:13;14.20;;;8.98;;
40755;SDS011;26461;45.630;9.418;2024-03-29T17:35:17;11.85;;;7.78;;
40755;SDS011;26461;45.630;9.418;2024-03-29T17:38:21;29.15;;;12.90;;
40755;SDS011;26461;45.630;9.418;2024-03-29T17:41:25;20.70;;;10.40;;
40755;SDS011;26461;45.630;9.418;2024-03-29T17:44:30;24.08;;;12.45;;
40755;SDS011;26461;45.630;9.418;2024-03-29T17:47:34;13.45;;;9.35;;
40755;SDS011;26461;45.630;9.418;2024-03-29T17:50:38;36.17;;;14.30;;
40755;SDS011;26461;45.630;9.418;2024-03-29T17:53:42;15.23;;;9.77;;
40755;SDS011;26461;45.630;9.418;2024-03-29T17:56:46;15.73;;;9.77;;
40755;SDS011;26461;45.630;9.418;2024-03-29T17:59:49;28.27;;;12.45;;
40755;SDS011;26461;45.630;9.418;2024-03-29T18:02:53;28.77;;;13.60;;
40755;SDS011;26461;45.630;9.418;2024-03-29T18:05:57;13.70;;;10.27;;
40755;SDS011;26461;45.630;9.418;2024-03-29T18:09:01;19.75;;;11.32;;
40755;SDS011;26461;45.630;9.418;2024-03-29T18:12:05;14.02;;;12.30;;
40755;SDS011;26461;45.630;9.418;2024-03-29T18:15:09;16.45;;;10.65;;
40755;SDS011;26461;45.630;9.418;2024-03-29T18:18:13;14.68;;;9.10;;
40755;SDS011;26461;45.630;9.418;2024-03-29T18:21:17;18.05;;;9.85;;
40755;SDS011;26461;45.630;9.418;2024-03-29T18:24:21;28.63;;;12.98;;